Turner, OR (97392)

2:42 AM PST on February 12, 2016 (GMT -0800)
Marion | | Change Station
CLOSE
Current Station
Personal Weather Station
Location: Turner, OR
Elevation: 308 ft
Nearby Weather Stations

Elev 308 ft 44.75 °N, 122.93 °W | Updated 8 seconds ago

Overcast
Overcast
52.3 °F
Feels Like 52.3 °F
N
0.0
Wind Variable Wind from SSW
Gusts 0.0 mph

Today
High -- | Low -- °F
--% Chance of Precip.
Yesterday
High -- | Low -- °F
Precip. -- in
Pressure 30.14 in
Visibility 5.0 miles
Clouds Mostly Cloudy 600 ft
Mostly Cloudy 12000 ft
Dew Point 52 °F
Humidity 98%
Rainfall 0.00 in
Snow Depth Not available.
7:17 AM 5:35 PM
Waxing Crescent, 19% visible
SPECI KSLE 121009Z AUTO 14007KT 5SM BR BKN006 BKN120 12/10 A3014 RMK AO2 T01170100
Pressure 30.14 in
Visibility 5.0 miles
Clouds Mostly Cloudy 600 ft
Mostly Cloudy 12000 ft
Dew Point 52 °F
Humidity 98%
Rainfall 0.00 in
Snow Depth Not available.
7:17 AM 5:35 PM
Waxing Crescent, 19% visible
SPECI KSLE 121009Z AUTO 14007KT 5SM BR BKN006 BKN120 12/10 A3014 RMK AO2 T01170100

10-Day Weather Forecast

Almanac

Astronomy

Feb. 12, 2016 Rise Set
Actual Time
Civil Twilight
Nautical Twilight
Astronomical Twilight
Moon
Length of Visible Light
Length of Day
Tomorrow will be .
, % of the Moon is Illuminated

Today's Extremes

State Highs State Lows

Community

WunderPhotos

Upload Photos

1,892,289 photos uploaded!

WunderBlog® & News

Nearby

Air Quality

  Air Quality AQ Index Pollutant
Not available.

Snow Depth

Station Depth Elevation

Earthquake Activity

City Distance Mag. Time & Date
Minimum magnitude displayed is 2.5.

Coastal Water Temperatures

Place Temperature

Stations

Nearby Weather Stations

Station Location Temp. Windchill Dew Point Humidity Wind Precip. Elev Updated Type
                   

Watches & Warnings

There are currently no watches in effect.